createdAt,value
2022-11-05T00:01:52.752Z,67.58
2022-11-05T00:04:37.873Z,66.85
2022-11-05T00:07:32.097Z,66.83
2022-11-05T00:10:03.537Z,66.83
2022-11-05T00:12:48.849Z,66.47
2022-11-05T00:15:33.934Z,66.86
2022-11-05T00:18:00.535Z,66.98
2022-11-05T00:20:27.165Z,67.29
2022-11-05T00:23:24.797Z,67.24
2022-11-05T00:26:02.334Z,67.09
2022-11-05T00:28:29.861Z,67.42
2022-11-05T00:31:10.352Z,66.85
2022-11-05T00:33:37.876Z,67.06
2022-11-05T00:36:05.959Z,66.94
2022-11-05T00:38:32.794Z,67.15
2022-11-05T00:40:59.378Z,66.98
2022-11-05T00:43:44.803Z,67.20
2022-11-05T00:46:12.141Z,66.76
2022-11-05T00:48:57.624Z,66.68
2022-11-05T00:51:24.199Z,66.64
2022-11-05T00:53:51.006Z,66.49
2022-11-05T00:56:17.596Z,66.80
2022-11-05T00:58:44.525Z,66.61
2022-11-05T01:01:11.898Z,66.29
2022-11-05T01:03:39.889Z,66.33
2022-11-05T01:06:12.950Z,66.49
2022-11-05T01:08:40.780Z,66.71
2022-11-05T01:11:35.829Z,65.87
2022-11-05T01:14:05.135Z,66.31
2022-11-05T01:16:32.938Z,66.32
2022-11-05T01:19:01.004Z,66.55
2022-11-05T01:21:27.581Z,66.27
2022-11-05T01:23:55.209Z,66.46
2022-11-05T01:26:21.861Z,66.01
2022-11-05T01:28:53.808Z,65.94
2022-11-05T01:31:22.066Z,66.35
2022-11-05T01:33:49.007Z,66.14
2022-11-05T01:36:15.590Z,65.96
2022-11-05T01:38:42.210Z,66.28
2022-11-05T01:41:08.856Z,66.30
2022-11-05T01:43:54.435Z,65.86
2022-11-05T01:46:29.556Z,65.93
2022-11-05T01:49:02.776Z,66.32
2022-11-05T01:51:29.857Z,65.93
2022-11-05T01:54:05.637Z,66.16
2022-11-05T01:56:37.897Z,66.20
2022-11-05T01:59:31.450Z,65.81
2022-11-05T02:01:58.470Z,65.84
2022-11-05T02:04:35.542Z,65.65
2022-11-05T02:07:03.330Z,66.31
2022-11-05T02:09:35.199Z,66.24
2022-11-05T02:12:02.117Z,66.36
2022-11-05T02:14:28.671Z,66.58
2022-11-05T02:17:09.815Z,66.05
2022-11-05T02:20:10.954Z,66.35
2022-11-05T02:22:46.461Z,65.94
2022-11-05T02:25:37.969Z,65.53
2022-11-05T02:28:45.903Z,65.80
2022-11-05T02:31:36.335Z,65.38
2022-11-05T02:34:14.565Z,65.63
2022-11-05T02:36:46.729Z,65.42
2022-11-05T02:39:16.165Z,65.60
2022-11-05T02:41:54.735Z,65.63
2022-11-05T02:44:35.600Z,66.25
2022-11-05T02:47:17.896Z,65.77
2022-11-05T02:50:09.925Z,65.74
2022-11-05T02:52:40.122Z,66.12
2022-11-05T02:55:13.653Z,66.12
2022-11-05T02:57:44.588Z,65.95
2022-11-05T03:00:50.921Z,65.97
2022-11-05T03:03:26.408Z,66.25
2022-11-05T03:06:10.676Z,66.30
2022-11-05T03:08:53.547Z,66.72
2022-11-05T03:11:23.079Z,66.30
2022-11-05T03:14:07.884Z,66.39
2022-11-05T03:16:42.827Z,66.31
2022-11-05T03:19:27.662Z,66.13
2022-11-05T03:21:58.978Z,66.26
2022-11-05T03:24:33.616Z,66.43
2022-11-05T03:27:03.521Z,66.31
2022-11-05T03:29:37.611Z,66.76
2022-11-05T03:32:05.390Z,67.64
2022-11-05T03:34:35.853Z,67.14
2022-11-05T03:37:03.760Z,67.64
2022-11-05T03:39:31.571Z,68.63
2022-11-05T03:41:59.020Z,67.83
2022-11-05T03:44:29.465Z,67.70
2022-11-05T03:47:01.875Z,67.93
2022-11-05T03:49:33.018Z,68.83
2022-11-05T03:52:17.949Z,68.09
2022-11-05T03:54:44.624Z,68.62
2022-11-05T03:57:15.612Z,67.95
2022-11-05T03:59:44.827Z,68.25
2022-11-05T04:02:13.589Z,68.07
2022-11-05T04:04:40.396Z,69.04
2022-11-05T04:07:25.596Z,68.54
2022-11-05T04:10:10.694Z,69.13
2022-11-05T04:12:55.870Z,69.33
2022-11-05T04:15:22.469Z,70.08
2022-11-05T04:17:48.999Z,69.60
2022-11-05T04:20:34.249Z,69.85
2022-11-05T04:23:21.721Z,71.07
2022-11-05T04:25:48.329Z,71.79
2022-11-05T04:28:15.108Z,72.71
2022-11-05T04:30:44.190Z,72.78
2022-11-05T04:33:15.783Z,71.49
2022-11-05T04:35:44.798Z,71.93
2022-11-05T04:38:18.952Z,72.70
2022-11-05T04:40:46.651Z,72.59
2022-11-05T04:43:19.053Z,71.81
2022-11-05T04:45:46.144Z,72.68
2022-11-05T04:48:13.158Z,72.27
2022-11-05T04:50:39.918Z,72.72
2022-11-05T04:53:06.456Z,71.84
2022-11-05T04:55:33.021Z,71.83
2022-11-05T04:57:59.681Z,71.83
2022-11-05T05:00:26.594Z,70.86
2022-11-05T05:02:53.394Z,71.12
2022-11-05T05:05:21.237Z,71.28
2022-11-05T05:07:47.848Z,70.70
2022-11-05T05:10:14.386Z,71.33
2022-11-05T05:12:41.120Z,71.12
2022-11-05T05:15:07.949Z,71.49
2022-11-05T05:17:34.493Z,72.06
2022-11-05T05:20:19.826Z,71.48
2022-11-05T05:22:54.449Z,70.84
2022-11-05T05:25:21.933Z,70.57
2022-11-05T05:27:48.505Z,71.35
2022-11-05T05:30:15.158Z,71.00
2022-11-05T05:32:41.763Z,70.53
2022-11-05T05:35:08.916Z,70.74
2022-11-05T05:37:35.451Z,70.43
2022-11-05T05:40:02.008Z,70.37
2022-11-05T05:42:28.606Z,70.68
2022-11-05T05:44:55.189Z,70.47
2022-11-05T05:47:21.820Z,70.64
2022-11-05T05:49:48.395Z,70.53
2022-11-05T05:52:14.979Z,70.19
2022-11-05T05:54:43.090Z,70.04
2022-11-05T05:57:10.133Z,70.17
2022-11-05T05:59:36.778Z,70.08
2022-11-05T06:02:03.665Z,73.06
2022-11-05T06:04:30.344Z,72.86
2022-11-05T06:06:57.017Z,71.92
2022-11-05T06:09:23.677Z,71.75
2022-11-05T06:11:50.240Z,71.27
2022-11-05T06:14:16.888Z,71.12
2022-11-05T06:16:43.614Z,71.87
2022-11-05T06:19:10.375Z,71.51
2022-11-05T06:21:36.938Z,70.96
2022-11-05T06:24:03.645Z,71.18
2022-11-05T06:26:30.442Z,71.24
2022-11-05T06:28:57.270Z,70.67
2022-11-05T06:31:24.028Z,72.97
2022-11-05T06:33:51.039Z,71.92
2022-11-05T06:36:18.976Z,71.25
2022-11-05T06:38:45.802Z,70.70
2022-11-05T06:41:12.375Z,70.75
2022-11-05T06:43:39.200Z,70.61
2022-11-05T06:46:05.816Z,70.77
2022-11-05T06:48:32.545Z,70.44
2022-11-05T06:50:59.191Z,69.73
2022-11-05T06:53:25.833Z,69.91
2022-11-05T06:55:52.399Z,70.18
2022-11-05T06:58:18.955Z,70.36
2022-11-05T07:00:45.698Z,70.16
2022-11-05T07:03:13.497Z,70.25
2022-11-05T07:05:45.114Z,70.40
2022-11-05T07:08:11.778Z,70.02
2022-11-05T07:10:38.477Z,70.69
2022-11-05T07:13:08.167Z,70.28
2022-11-05T07:15:35.777Z,70.45
2022-11-05T07:18:02.671Z,70.39
2022-11-05T07:20:33.528Z,70.39
2022-11-05T07:23:10.914Z,70.81
2022-11-05T07:25:38.191Z,70.54
2022-11-05T07:28:05.406Z,70.55
2022-11-05T07:30:32.528Z,70.28
2022-11-05T07:33:00.120Z,70.78
2022-11-05T07:35:27.232Z,70.80
2022-11-05T07:37:54.427Z,70.67
2022-11-05T07:40:22.808Z,70.06
2022-11-05T07:42:53.411Z,70.37
2022-11-05T07:45:20.827Z,69.80
2022-11-05T07:47:54.249Z,70.08
2022-11-05T07:50:24.952Z,70.84
2022-11-05T07:52:52.178Z,70.57
2022-11-05T07:55:19.773Z,70.53
2022-11-05T07:57:50.731Z,70.73
2022-11-05T08:00:20.662Z,72.61
2022-11-05T08:03:04.008Z,72.90
2022-11-05T08:05:40.727Z,72.60
2022-11-05T08:08:08.549Z,73.81
2022-11-05T08:10:36.578Z,74.68
2022-11-05T08:13:03.338Z,73.15
2022-11-05T08:15:33.398Z,72.55
2022-11-05T08:18:06.949Z,72.73
2022-11-05T08:20:34.407Z,72.86
2022-11-05T08:23:01.181Z,73.08
2022-11-05T08:25:27.798Z,74.31
2022-11-05T08:27:59.870Z,73.96
2022-11-05T08:30:26.645Z,72.50
2022-11-05T08:33:00.409Z,72.70
2022-11-05T08:35:34.936Z,73.10
2022-11-05T08:38:03.287Z,73.43
2022-11-05T08:40:34.659Z,74.58
2022-11-05T08:43:08.029Z,73.54
2022-11-05T08:45:38.647Z,73.39
2022-11-05T08:48:07.704Z,74.23
2022-11-05T08:50:37.107Z,73.49
2022-11-05T08:53:05.945Z,73.48
2022-11-05T08:55:34.753Z,72.47
2022-11-05T08:58:03.360Z,73.94
2022-11-05T09:00:33.302Z,73.68
2022-11-05T09:03:01.123Z,74.47
2022-11-05T09:05:30.159Z,73.10
2022-11-05T09:08:00.824Z,73.66
2022-11-05T09:10:29.631Z,74.21
2022-11-05T09:12:56.510Z,73.73
2022-11-05T09:15:27.918Z,75.00
2022-11-05T09:17:56.947Z,74.82
2022-11-05T09:20:23.756Z,73.72
2022-11-05T09:22:50.449Z,73.10
2022-11-05T09:25:18.035Z,75.12
2022-11-05T09:27:44.954Z,75.44
2022-11-05T09:30:12.945Z,73.91
2022-11-05T09:32:39.584Z,74.12
2022-11-05T09:35:06.971Z,74.04
2022-11-05T09:37:35.186Z,74.29
2022-11-05T09:40:01.738Z,73.38
2022-11-05T09:42:37.779Z,73.50
2022-11-05T09:45:24.963Z,72.32
2022-11-05T09:48:08.681Z,72.21
2022-11-05T09:50:39.509Z,71.24
2022-11-05T09:53:06.374Z,70.30
2022-11-05T09:55:38.890Z,71.63
2022-11-05T09:58:44.966Z,72.31
2022-11-05T10:01:15.291Z,71.91
2022-11-05T10:03:48.136Z,72.99
2022-11-05T10:06:21.206Z,72.16
2022-11-05T10:09:12.140Z,72.87
2022-11-05T10:11:44.318Z,73.25
2022-11-05T10:14:19.431Z,72.91
2022-11-05T10:16:51.363Z,71.74
2022-11-05T10:19:24.317Z,71.05
2022-11-05T10:22:10.694Z,70.78
2022-11-05T10:24:45.751Z,72.50
2022-11-05T10:27:19.345Z,72.29
2022-11-05T10:29:47.050Z,71.43
2022-11-05T10:32:28.949Z,71.33
2022-11-05T10:35:00.262Z,71.73
2022-11-05T10:37:27.562Z,71.36
2022-11-05T10:39:54.122Z,71.23
2022-11-05T10:42:29.771Z,71.45
2022-11-05T10:45:17.532Z,70.72
2022-11-05T10:47:50.193Z,70.46
2022-11-05T10:50:19.877Z,70.00
2022-11-05T10:52:52.369Z,69.45
2022-11-05T10:55:24.670Z,70.26
2022-11-05T10:57:51.305Z,71.05
2022-11-05T11:00:19.736Z,71.04
2022-11-05T11:02:57.455Z,71.64
2022-11-05T11:05:32.285Z,71.68
2022-11-05T11:08:10.963Z,72.19
2022-11-05T11:11:06.375Z,71.60
2022-11-05T11:13:52.143Z,72.71
2022-11-05T11:16:24.409Z,73.21
2022-11-05T11:18:56.429Z,73.25
2022-11-05T11:21:23.622Z,72.36
2022-11-05T11:24:04.883Z,71.94
2022-11-05T11:26:33.803Z,71.95
2022-11-05T11:29:25.166Z,71.95
2022-11-05T11:31:54.677Z,71.49
2022-11-05T11:34:30.021Z,71.43
2022-11-05T11:37:05.520Z,70.84
2022-11-05T11:39:32.621Z,70.75
2022-11-05T11:42:02.913Z,70.20
2022-11-05T11:44:41.368Z,70.35
2022-11-05T11:47:13.978Z,69.86
2022-11-05T11:49:44.868Z,70.44
2022-11-05T11:52:14.252Z,69.57
2022-11-05T11:54:40.845Z,68.74
2022-11-05T11:57:28.491Z,68.13
2022-11-05T12:00:12.713Z,68.37
2022-11-05T12:03:02.206Z,67.93
2022-11-05T12:05:34.481Z,67.38
2022-11-05T12:08:19.796Z,67.37
2022-11-05T12:11:06.765Z,68.18
2022-11-05T12:13:33.371Z,69.33
2022-11-05T12:16:21.390Z,68.38
2022-11-05T12:19:42.391Z,69.46
2022-11-05T12:22:38.210Z,68.68
2022-11-05T12:25:27.955Z,67.18
2022-11-05T12:28:09.822Z,67.30
2022-11-05T12:30:51.555Z,66.67
2022-11-05T12:33:30.147Z,66.00
2022-11-05T12:36:32.274Z,64.99
2022-11-05T12:39:15.339Z,65.33
2022-11-05T12:42:15.668Z,66.19
2022-11-05T12:44:53.223Z,66.21
2022-11-05T12:47:25.661Z,65.70
2022-11-05T12:49:52.159Z,66.75
2022-11-05T12:52:36.778Z,64.23
2022-11-05T12:55:16.840Z,64.41
2022-11-05T12:57:45.969Z,64.39
2022-11-05T13:00:23.905Z,63.71
2022-11-05T13:02:56.924Z,63.38
2022-11-05T13:05:35.314Z,63.69
2022-11-05T13:08:07.669Z,63.66
2022-11-05T13:10:44.256Z,63.45
2022-11-05T13:13:26.689Z,63.14
2022-11-05T13:15:56.521Z,63.66
2022-11-05T13:18:46.952Z,62.60
2022-11-05T13:21:15.213Z,62.64
2022-11-05T13:23:46.822Z,62.99
2022-11-05T13:26:48.646Z,62.57
2022-11-05T13:29:48.944Z,63.35
2022-11-05T13:32:24.597Z,63.35
2022-11-05T13:35:15.676Z,63.36
2022-11-05T13:38:04.064Z,63.19
2022-11-05T13:40:52.217Z,62.55
2022-11-05T13:43:41.003Z,62.70
2022-11-05T13:46:07.841Z,63.00
2022-11-05T13:48:51.989Z,63.96
2022-11-05T13:51:40.307Z,62.72
2022-11-05T13:54:44.813Z,63.06
2022-11-05T13:57:11.371Z,63.52
2022-11-05T13:59:43.960Z,63.16
2022-11-05T14:02:15.578Z,62.82
2022-11-05T14:04:47.355Z,62.66
2022-11-05T14:07:21.170Z,61.64
2022-11-05T14:09:53.899Z,62.18
2022-11-05T14:12:27.839Z,62.40
2022-11-05T14:14:59.671Z,63.80
2022-11-05T14:17:31.430Z,63.29
2022-11-05T14:20:01.007Z,63.56
2022-11-05T14:22:36.986Z,63.15
2022-11-05T14:25:18.798Z,63.02
2022-11-05T14:27:47.734Z,63.73
2022-11-05T14:30:41.137Z,62.62
2022-11-05T14:33:24.460Z,62.49
2022-11-05T14:35:52.298Z,63.08
2022-11-05T14:38:26.749Z,63.13
2022-11-05T14:41:00.376Z,62.56
2022-11-05T14:43:27.998Z,62.94
2022-11-05T14:46:01.818Z,62.99
2022-11-05T14:48:35.274Z,63.11
2022-11-05T14:51:18.428Z,63.87
2022-11-05T14:53:45.067Z,63.74
2022-11-05T14:56:14.511Z,63.94
2022-11-05T14:58:42.853Z,63.51
2022-11-05T15:01:13.329Z,64.02
2022-11-05T15:03:45.392Z,63.94
2022-11-05T15:06:33.399Z,63.84
2022-11-05T15:09:18.572Z,64.35
2022-11-05T15:12:00.382Z,64.48
2022-11-05T15:14:38.136Z,64.17
2022-11-05T15:17:23.286Z,64.18
2022-11-05T15:19:52.321Z,63.97
2022-11-05T15:22:27.177Z,63.72
2022-11-05T15:24:55.838Z,63.51
2022-11-05T15:27:58.920Z,63.83
2022-11-05T15:30:26.608Z,63.73
2022-11-05T15:32:53.746Z,64.02
2022-11-05T15:35:26.866Z,63.44
2022-11-05T15:38:01.412Z,63.80
2022-11-05T15:40:31.553Z,63.82
2022-11-05T15:43:17.332Z,64.55
2022-11-05T15:45:57.759Z,63.79
2022-11-05T15:48:24.707Z,63.48
2022-11-05T15:50:51.308Z,63.46
2022-11-05T15:53:47.361Z,64.07
2022-11-05T15:56:18.745Z,63.71
2022-11-05T15:58:52.428Z,63.40
2022-11-05T16:01:37.473Z,63.89
2022-11-05T16:04:25.233Z,63.74
2022-11-05T16:06:55.016Z,64.05
2022-11-05T16:09:31.448Z,63.47
2022-11-05T16:12:30.600Z,63.87
2022-11-05T16:15:09.368Z,64.18
2022-11-05T16:17:50.493Z,63.90
2022-11-05T16:20:47.345Z,64.06
2022-11-05T16:23:41.852Z,63.88
2022-11-05T16:26:55.817Z,63.86
2022-11-05T16:29:18.442Z,63.92
2022-11-05T16:31:50.057Z,64.13
2022-11-05T16:34:45.595Z,64.86
2022-11-05T16:37:13.997Z,65.06
2022-11-05T16:39:40.661Z,65.07
2022-11-05T16:42:22.621Z,65.05
2022-11-05T16:44:50.278Z,65.89
2022-11-05T16:47:17.680Z,65.65
2022-11-05T16:49:44.321Z,65.00
2022-11-05T16:52:12.046Z,64.32
2022-11-05T16:54:39.009Z,63.77
2022-11-05T16:57:23.748Z,64.16
2022-11-05T16:59:50.408Z,63.69
2022-11-05T17:02:17.244Z,64.27
2022-11-05T17:04:47.708Z,63.40
2022-11-05T17:07:14.301Z,63.51
2022-11-05T17:09:40.905Z,63.07
2022-11-05T17:12:07.524Z,63.29
2022-11-05T17:14:34.113Z,63.58
2022-11-05T17:17:01.526Z,64.43
2022-11-05T17:19:28.135Z,64.44
2022-11-05T17:21:54.925Z,65.16
2022-11-05T17:24:21.699Z,65.76
2022-11-05T17:26:48.211Z,65.80
2022-11-05T17:29:15.097Z,65.04
2022-11-05T17:31:42.218Z,65.09
2022-11-05T17:34:09.962Z,66.09
2022-11-05T17:36:36.657Z,66.46
2022-11-05T17:39:03.306Z,66.87
2022-11-05T17:41:29.899Z,66.40
2022-11-05T17:43:57.236Z,66.63
2022-11-05T17:46:24.598Z,66.89
2022-11-05T17:48:51.190Z,67.27
2022-11-05T17:51:19.243Z,67.48
2022-11-05T17:53:46.028Z,67.04
2022-11-05T17:56:13.731Z,66.96
2022-11-05T17:58:40.886Z,66.62
2022-11-05T18:01:08.631Z,67.06
2022-11-05T18:03:35.375Z,67.55
2022-11-05T18:06:06.248Z,67.12
2022-11-05T18:08:33.213Z,67.48
2022-11-05T18:10:59.818Z,67.31
2022-11-05T18:13:26.425Z,67.76
2022-11-05T18:15:54.017Z,67.62
2022-11-05T18:18:21.793Z,67.51
2022-11-05T18:20:48.468Z,67.57
2022-11-05T18:23:15.424Z,67.77
2022-11-05T18:25:42.724Z,67.56
2022-11-05T18:28:09.977Z,67.79
2022-11-05T18:30:38.681Z,67.23
2022-11-05T18:33:05.653Z,68.00
2022-11-05T18:35:32.404Z,67.55
2022-11-05T18:37:59.157Z,68.16
2022-11-05T18:40:25.734Z,68.02
2022-11-05T18:42:52.393Z,68.47
2022-11-05T18:45:20.283Z,68.46
2022-11-05T18:47:49.647Z,68.35
2022-11-05T18:50:16.658Z,68.43
2022-11-05T18:52:44.084Z,68.22
2022-11-05T18:55:10.819Z,68.08
2022-11-05T18:57:39.122Z,68.43
2022-11-05T19:00:06.487Z,68.25
2022-11-05T19:02:33.658Z,67.81
2022-11-05T19:05:27.511Z,67.64
2022-11-05T19:07:47.613Z,68.24
2022-11-05T19:10:14.150Z,68.39
2022-11-05T19:12:41.423Z,68.30
2022-11-05T19:15:08.848Z,67.82
2022-11-05T19:17:35.897Z,68.02
2022-11-05T19:20:03.222Z,68.31
2022-11-05T19:22:29.918Z,68.01
2022-11-05T19:24:56.526Z,67.37
2022-11-05T19:27:23.335Z,67.95
2022-11-05T19:29:49.986Z,67.94
2022-11-05T19:32:16.708Z,68.48
2022-11-05T19:34:43.248Z,68.83
2022-11-05T19:37:09.881Z,68.64
2022-11-05T19:39:36.565Z,69.10
2022-11-05T19:42:03.993Z,68.55
2022-11-05T19:44:31.083Z,68.52
2022-11-05T19:46:57.788Z,69.07
2022-11-05T19:49:24.426Z,69.29
2022-11-05T19:51:51.119Z,69.37
2022-11-05T19:54:18.732Z,68.88
2022-11-05T19:56:45.734Z,68.92
2022-11-05T19:59:12.852Z,67.65
2022-11-05T20:01:39.503Z,67.36
2022-11-05T20:04:06.265Z,68.11
2022-11-05T20:06:38.744Z,68.49
2022-11-05T20:09:21.710Z,69.21
2022-11-05T20:11:53.844Z,67.80
2022-11-05T20:14:20.446Z,67.39
2022-11-05T20:16:47.138Z,67.71
2022-11-05T20:19:16.580Z,68.67
2022-11-05T20:21:43.407Z,68.51
2022-11-05T20:24:18.845Z,69.20
2022-11-05T20:26:51.460Z,69.95
2022-11-05T20:29:18.121Z,69.41
2022-11-05T20:31:44.698Z,69.35
2022-11-05T20:34:11.870Z,69.28
2022-11-05T20:36:39.190Z,69.71
2022-11-05T20:39:06.019Z,68.99
2022-11-05T20:41:33.573Z,68.29
2022-11-05T20:44:00.254Z,68.57
2022-11-05T20:46:26.891Z,68.57
2022-11-05T20:48:53.932Z,68.82
2022-11-05T20:51:22.226Z,69.05
2022-11-05T20:53:49.044Z,68.86
2022-11-05T20:56:22.561Z,68.91
2022-11-05T20:58:49.774Z,69.30
2022-11-05T21:01:16.866Z,69.50
2022-11-05T21:03:47.647Z,69.98
2022-11-05T21:06:15.095Z,69.00
2022-11-05T21:08:41.770Z,69.37
2022-11-05T21:11:08.840Z,69.38
2022-11-05T21:13:35.959Z,68.86
2022-11-05T21:16:05.362Z,69.23
2022-11-05T21:18:33.917Z,69.04
2022-11-05T21:21:09.690Z,69.31
2022-11-05T21:23:36.381Z,68.54
2022-11-05T21:26:08.447Z,68.64
2022-11-05T21:28:39.500Z,69.14
2022-11-05T21:31:07.750Z,68.30
2022-11-05T21:33:34.553Z,68.51
2022-11-05T21:36:09.616Z,68.62
2022-11-05T21:38:36.927Z,68.42
2022-11-05T21:41:04.442Z,68.55
2022-11-05T21:43:31.424Z,68.59
2022-11-05T21:46:01.304Z,69.15
2022-11-05T21:48:27.833Z,68.19
2022-11-05T21:51:13.170Z,68.32
2022-11-05T21:53:58.343Z,68.01
2022-11-05T21:56:45.576Z,68.68
2022-11-05T21:59:33.674Z,69.20
2022-11-05T22:02:01.621Z,69.57
2022-11-05T22:04:30.262Z,69.06
2022-11-05T22:06:57.108Z,69.14
2022-11-05T22:09:24.597Z,68.98
2022-11-05T22:11:51.348Z,69.23
2022-11-05T22:14:17.950Z,69.17
2022-11-05T22:16:44.614Z,68.81
2022-11-05T22:19:11.416Z,69.25
2022-11-05T22:21:38.245Z,68.43
2022-11-05T22:24:05.773Z,68.51
2022-11-05T22:26:32.917Z,68.35
2022-11-05T22:28:59.584Z,68.38
2022-11-05T22:31:26.709Z,68.08
2022-11-05T22:33:55.115Z,67.75
2022-11-05T22:36:21.665Z,67.80
2022-11-05T22:38:48.427Z,67.95
2022-11-05T22:41:17.818Z,68.82
2022-11-05T22:43:45.425Z,69.31
2022-11-05T22:46:14.362Z,68.63
2022-11-05T22:48:44.117Z,68.86
2022-11-05T22:51:13.902Z,69.14
2022-11-05T22:53:41.540Z,69.06
2022-11-05T22:56:11.340Z,68.95
2022-11-05T22:58:38.254Z,68.51
2022-11-05T23:01:05.856Z,68.69
2022-11-05T23:03:33.624Z,68.79
2022-11-05T23:06:01.858Z,68.98
2022-11-05T23:08:47.157Z,69.51
2022-11-05T23:11:38.329Z,69.15
2022-11-05T23:14:10.027Z,69.54
2022-11-05T23:16:56.701Z,69.74
2022-11-05T23:19:42.211Z,69.18
2022-11-05T23:22:39.080Z,69.07
2022-11-05T23:25:07.436Z,68.55
2022-11-05T23:27:36.829Z,69.12
2022-11-05T23:30:07.505Z,68.79
2022-11-05T23:32:34.167Z,68.89
2022-11-05T23:35:00.794Z,69.05
2022-11-05T23:37:49.173Z,68.07
2022-11-05T23:40:21.840Z,66.95
2022-11-05T23:43:07.041Z,68.42
2022-11-05T23:45:52.522Z,68.73
2022-11-05T23:48:33.576Z,68.75
2022-11-05T23:51:03.060Z,69.07
2022-11-05T23:53:33.619Z,69.10
2022-11-05T23:56:02.304Z,69.40
2022-11-05T23:58:29.272Z,69.30
